Time;durP1;ratioP1;P1;durP2;ratioP2;P2;SDS_P1;SDS_P2;PMS_P1;PMS_P2;Temp;Humidity;BMP_temperature;BMP_pressure;BME280_temperature;BME280_humidity;BME280_pressure;Samples;Min_cycle;Max_cycle;Signal;HPM_P1;HPM_P2
2023/07/18 00:00:14;;;;;;;4.78;4.20;;;;;;;28.39;54.84;101402.94;5034665;28;20021;-87
2023/07/18 00:02:42;;;;;;;4.37;3.97;;;;;;;28.51;54.77;101419.88;5015358;28;20025;-86
2023/07/18 00:05:12;;;;;;;4.40;3.88;;;;;;;28.46;54.63;101417.22;5032246;28;20029;-86
2023/07/18 00:07:41;;;;;;;5.90;4.22;;;;;;;28.48;54.82;101417.22;5050027;28;20033;-86
2023/07/18 00:10:10;;;;;;;4.55;4.15;;;;;;;28.54;55.04;101431.50;5024606;28;20083;-86
2023/07/18 00:12:37;;;;;;;4.65;4.20;;;;;;;28.25;55.17;101387.88;5027846;28;20107;-86
2023/07/18 00:15:06;;;;;;;4.15;3.75;;;;;;;28.18;54.76;101376.31;5034594;28;20032;-86
2023/07/18 00:17:33;;;;;;;4.75;4.30;;;;;;;28.45;54.91;101420.81;5018857;28;20032;-86
2023/07/18 00:20:17;;;;;;;4.65;4.25;;;;;;;28.24;54.97;101381.63;5053202;28;20552;-87
2023/07/18 00:22:50;;;;;;;4.60;4.20;;;;;;;28.28;55.02;101401.25;5042697;28;20090;-87
2023/07/18 00:25:19;;;;;;;4.85;4.30;;;;;;;28.14;54.91;101372.75;5023581;28;20489;-86
2023/07/18 00:27:49;;;;;;;5.72;4.30;;;;;;;28.20;54.94;101387.91;5030789;28;20420;-86
2023/07/18 00:30:17;;;;;;;4.90;3.92;;;;;;;28.09;55.25;101363.84;5022102;28;20483;-86
2023/07/18 00:32:44;;;;;;;4.78;4.25;;;;;;;28.09;54.94;101368.31;5051856;28;20052;-86
2023/07/18 00:35:13;;;;;;;4.63;3.90;;;;;;;28.29;54.98;101387.81;5029621;28;20471;-86
2023/07/18 00:37:39;;;;;;;4.60;4.20;;;;;;;28.48;54.73;101423.47;5033981;28;20548;-85
2023/07/18 00:40:15;;;;;;;4.22;3.83;;;;;;;28.47;54.90;101432.44;5052763;28;20024;-84
2023/07/18 00:42:43;;;;;;;5.07;4.15;;;;;;;28.07;55.32;101356.69;5034834;28;20086;-85
2023/07/18 00:45:09;;;;;;;4.80;4.22;;;;;;;28.38;55.13;101403.84;5025714;28;20113;-86
2023/07/18 00:47:42;;;;;;;4.78;3.97;;;;;;;28.35;54.88;101403.88;5052622;28;20112;-85
2023/07/18 00:50:16;;;;;;;7.15;4.40;;;;;;;28.45;54.85;101414.53;5033601;28;20032;-85
2023/07/18 00:52:43;;;;;;;4.57;4.10;;;;;;;28.44;54.70;101416.34;5018209;28;20448;-85
2023/07/18 00:55:10;;;;;;;6.38;4.15;;;;;;;28.42;54.81;101415.47;5017960;28;20035;-84
2023/07/18 00:57:38;;;;;;;4.75;4.30;;;;;;;28.40;54.84;101407.41;5014803;28;20057;-85
2023/07/18 01:00:11;;;;;;;4.55;4.07;;;;;;;28.29;54.87;101395.88;5032218;28;20454;-85
2023/07/18 01:02:38;;;;;;;4.70;4.10;;;;;;;28.42;54.82;101410.09;5030239;28;20022;-86
2023/07/18 01:05:03;;;;;;;4.32;3.92;;;;;;;28.00;54.76;101343.34;5030945;28;20029;-85
2023/07/18 01:07:29;;;;;;;5.53;4.22;;;;;;;28.39;55.21;101402.94;5028182;28;20461;-85
2023/07/18 01:10:24;;;;;;;4.80;4.20;;;;;;;28.32;54.81;101387.81;5050231;28;20037;-86
2023/07/18 01:12:57;;;;;;;4.53;3.92;;;;;;;28.30;54.96;101386.94;5022882;28;20457;-86
2023/07/18 01:15:24;;;;;;;5.10;3.88;;;;;;;28.22;54.89;101375.38;5050024;28;20114;-85
2023/07/18 01:17:50;;;;;;;5.00;4.50;;;;;;;28.37;54.93;101393.13;5027432;28;20049;-86
2023/07/18 01:20:27;;;;;;;4.30;3.70;;;;;;;28.26;54.70;101371.75;5028446;28;20037;-85
2023/07/18 01:22:58;;;;;;;4.40;4.00;;;;;;;28.34;54.84;101379.72;5018010;28;20516;-86
2023/07/18 01:25:24;;;;;;;4.20;3.80;;;;;;;28.30;54.75;101373.50;5033832;28;20031;-86
2023/07/18 01:27:55;;;;;;;4.35;3.90;;;;;;;28.34;54.75;101380.63;5032336;28;20037;-86
2023/07/18 01:30:22;;;;;;;4.10;3.80;;;;;;;28.34;54.75;101371.66;5032042;28;20064;-86
2023/07/18 01:32:48;;;;;;;4.03;3.63;;;;;;;28.36;54.81;101375.22;5050005;28;20480;-86
2023/07/18 01:35:15;;;;;;;6.15;4.35;;;;;;;28.34;54.55;101386.00;5051722;28;20557;-86
2023/07/18 01:37:44;;;;;;;4.55;4.15;;;;;;;28.27;54.77;101369.94;5047031;28;20051;-87
2023/07/18 01:40:14;;;;;;;4.38;3.97;;;;;;;28.35;54.75;101381.50;5029552;28;20021;-86
2023/07/18 01:42:43;;;;;;;4.68;4.00;;;;;;;28.31;54.76;101369.91;5051607;28;20029;-85
2023/07/18 01:45:09;;;;;;;4.65;4.20;;;;;;;28.27;55.08;101364.56;5051469;28;20511;-86
2023/07/18 01:47:36;;;;;;;5.18;4.10;;;;;;;28.31;54.79;101366.31;5051473;28;20485;-85
2023/07/18 01:50:04;;;;;;;5.07;4.05;;;;;;;28.20;54.77;101353.00;5027146;28;20029;-84
2023/07/18 01:52:31;;;;;;;5.32;3.83;;;;;;;28.01;54.66;101323.63;5017206;28;20068;-86
2023/07/18 01:55:01;;;;;;;4.65;4.07;;;;;;;28.23;54.84;101363.69;5032664;28;20032;-86
2023/07/18 01:57:30;;;;;;;4.20;3.80;;;;;;;28.15;54.75;101339.63;5051393;28;20025;-85
2023/07/18 01:59:55;;;;;;;4.75;4.03;;;;;;;28.13;54.54;101337.84;5032681;28;20574;-85
2023/07/18 02:02:21;;;;;;;5.05;4.55;;;;;;;28.20;54.71;101355.69;5025396;28;20120;-87
2023/07/18 02:04:49;;;;;;;3.90;3.60;;;;;;;28.18;54.94;101354.81;5039051;28;20035;-86
2023/07/18 02:07:15;;;;;;;5.00;4.45;;;;;;;28.27;55.06;101375.31;5033436;28;20095;-84
2023/07/18 02:09:41;;;;;;;5.20;3.90;;;;;;;28.23;55.07;101364.59;5050051;28;20115;-85
2023/07/18 02:12:08;;;;;;;4.80;3.97;;;;;;;28.13;54.88;101348.56;5019772;28;20036;-86
2023/07/18 02:14:37;;;;;;;4.85;3.95;;;;;;;28.12;54.82;101347.69;5037098;28;20026;-87
2023/07/18 02:17:03;;;;;;;4.50;4.07;;;;;;;28.21;54.77;101371.81;5031214;28;20033;-88
2023/07/18 02:19:29;;;;;;;4.80;3.75;;;;;;;28.14;54.76;101345.00;5028215;28;20561;-84
2023/07/18 02:21:54;;;;;;;4.07;3.63;;;;;;;28.21;54.71;101366.44;5049160;28;20123;-86
2023/07/18 02:24:20;;;;;;;4.43;3.90;;;;;;;28.21;54.43;101368.19;5050791;28;20052;-86
2023/07/18 02:26:46;;;;;;;4.18;3.70;;;;;;;28.20;54.87;101374.50;5030890;28;20560;-86
2023/07/18 02:29:13;;;;;;;4.63;4.22;;;;;;;28.03;54.86;101337.06;5020773;28;20056;-87
2023/07/18 02:31:39;;;;;;;4.97;4.07;;;;;;;28.00;54.89;101329.00;5016156;28;20030;-86
2023/07/18 02:34:05;;;;;;;4.45;4.05;;;;;;;28.14;54.66;101364.69;5031221;28;20022;-86
2023/07/18 02:36:32;;;;;;;5.25;4.25;;;;;;;28.17;54.74;101363.75;5029632;28;20033;-86
2023/07/18 02:38:58;;;;;;;4.95;3.80;;;;;;;27.93;54.95;101320.13;5029960;28;20573;-86
2023/07/18 02:41:23;;;;;;;4.30;3.90;;;;;;;28.16;55.01;101360.19;5009808;28;20053;-86
2023/07/18 02:43:49;;;;;;;4.13;3.80;;;;;;;27.78;54.57;101298.75;5011733;28;20489;-86
2023/07/18 02:46:15;;;;;;;4.10;3.72;;;;;;;28.16;54.88;101359.31;5027941;28;20422;-85
2023/07/18 02:48:41;;;;;;;5.78;4.32;;;;;;;27.69;54.52;101282.75;5026969;28;20033;-86
2023/07/18 02:51:13;;;;;;;4.28;3.88;;;;;;;27.77;54.67;101300.56;5012550;28;20398;-86
2023/07/18 02:53:39;;;;;;;4.25;3.85;;;;;;;28.14;54.99;101362.00;5027356;28;20029;-85
2023/07/18 02:56:05;;;;;;;4.20;3.80;;;;;;;27.86;54.97;101313.03;5017819;28;20022;-87
2023/07/18 02:58:31;;;;;;;4.25;3.95;;;;;;;28.13;54.91;101364.69;5029599;28;20063;-87
2023/07/18 03:00:59;;;;;;;4.60;4.10;;;;;;;27.98;54.94;101337.09;5032912;28;20025;-91
2023/07/18 03:03:27;;;;;;;4.60;4.20;;;;;;;27.86;54.94;101312.16;5034677;28;20026;-88
2023/07/18 03:05:54;;;;;;;4.97;3.90;;;;;;;27.60;54.58;101271.19;5021252;28;20057;-89
2023/07/18 03:08:20;;;;;;;4.40;4.00;;;;;;;28.09;55.09;101352.19;5019618;28;20469;-88
2023/07/18 03:10:47;;;;;;;4.47;4.07;;;;;;;28.00;55.10;101334.38;5026437;28;20711;-88
2023/07/18 03:13:13;;;;;;;4.30;3.90;;;;;;;28.10;55.00;101354.88;5034152;28;20108;-90
2023/07/18 03:15:39;;;;;;;4.85;4.10;;;;;;;28.00;55.26;101339.75;5026689;28;20513;-89
2023/07/18 03:18:08;;;;;;;4.75;4.18;;;;;;;28.08;55.07;101348.63;5021988;28;20040;-90
2023/07/18 03:20:35;;;;;;;4.18;3.78;;;;;;;27.90;55.21;101319.25;5027477;28;20064;-90
2023/07/18 03:23:04;;;;;;;4.72;4.22;;;;;;;27.88;54.96;101315.72;5028719;28;20448;-90
2023/07/18 03:25:34;;;;;;;4.35;3.95;;;;;;;27.82;55.18;101308.56;5032868;28;20030;-90
2023/07/18 03:28:00;;;;;;;4.57;3.85;;;;;;;28.04;54.98;101338.81;5024937;28;20081;-91
2023/07/18 03:30:25;;;;;;;4.00;3.70;;;;;;;27.87;55.08;101312.13;5031199;28;20430;-90
2023/07/18 03:32:51;;;;;;;4.30;3.90;;;;;;;27.97;55.14;101335.31;5007640;28;20111;-90
2023/07/18 03:35:17;;;;;;;4.28;3.88;;;;;;;27.95;55.09;101331.75;5024272;28;20556;-89
2023/07/18 03:37:44;;;;;;;5.03;3.85;;;;;;;27.81;54.94;101310.38;5027498;28;20068;-89
2023/07/18 03:40:11;;;;;;;6.13;3.83;;;;;;;27.93;55.03;101328.19;5029490;28;20085;-90
2023/07/18 03:42:36;;;;;;;3.97;3.63;;;;;;;28.02;55.25;101333.50;5033230;28;20025;-88
2023/07/18 03:45:04;;;;;;;4.35;3.85;;;;;;;27.84;55.17;101313.94;5028388;28;20112;-90
2023/07/18 03:47:31;;;;;;;4.10;3.75;;;;;;;27.95;55.24;101337.13;5022876;28;20042;-89
2023/07/18 03:49:57;;;;;;;5.20;4.00;;;;;;;28.00;54.89;101353.19;5026070;28;20383;-90
2023/07/18 03:52:23;;;;;;;5.20;3.90;;;;;;;27.86;54.76;101323.78;5024355;28;20079;-91
2023/07/18 03:54:49;;;;;;;5.07;3.88;;;;;;;27.91;55.00;101332.66;5016267;28;20037;-89
2023/07/18 03:57:15;;;;;;;4.18;3.80;;;;;;;27.80;54.87;101313.06;5029143;28;20018;-89
2023/07/18 03:59:40;;;;;;;5.15;3.67;;;;;;;27.97;55.31;101347.84;5028654;28;20041;-87
2023/07/18 04:02:06;;;;;;;;;;;;;;;28.00;54.95;101335.28;5031576;28;20559;-88
2023/07/18 04:04:32;;;;;;;4.30;3.55;;;;;;;27.96;54.89;101330.84;5033036;28;20433;-89
2023/07/18 04:06:57;;;;;;;4.22;3.83;;;;;;;27.94;55.02;101321.91;5034440;28;20034;-89
2023/07/18 04:09:23;;;;;;;4.30;3.92;;;;;;;27.85;54.98;101313.00;5034379;28;20383;-90
2023/07/18 04:11:51;;;;;;;4.53;4.13;;;;;;;27.87;55.04;101319.28;5037894;28;20112;-89
2023/07/18 04:14:17;;;;;;;5.30;4.25;;;;;;;27.85;55.29;101331.81;5034269;28;20034;-89
2023/07/18 04:16:43;;;;;;;5.00;3.83;;;;;;;27.87;55.05;101344.34;5034362;28;20030;-90
2023/07/18 04:19:09;;;;;;;7.00;3.72;;;;;;;27.84;55.30;101338.97;5027891;28;20408;-89
2023/07/18 04:21:35;;;;;;;4.35;3.95;;;;;;;27.83;55.29;101342.53;5015627;28;20040;-90
2023/07/18 04:24:00;;;;;;;4.75;4.22;;;;;;;27.92;55.45;101355.03;5033236;28;20494;-89
2023/07/18 04:26:27;;;;;;;4.85;3.85;;;;;;;27.73;55.00;101320.28;5027761;28;20021;-88
2023/07/18 04:28:52;;;;;;;4.28;3.88;;;;;;;27.75;55.09;101318.47;5025590;28;20077;-89
2023/07/18 04:31:19;;;;;;;3.95;3.47;;;;;;;27.92;55.48;101349.66;5032196;28;20053;-88
2023/07/18 04:33:47;;;;;;;5.05;4.05;;;;;;;27.86;55.24;101347.06;5034409;28;20490;-90
2023/07/18 04:36:33;;;;;;;3.90;3.60;;;;;;;27.91;54.93;101359.50;5017637;28;20045;-90
2023/07/18 04:38:58;;;;;;;4.25;3.85;;;;;;;27.50;55.47;101284.69;5019871;28;20124;-88
2023/07/18 04:41:24;;;;;;;4.30;3.75;;;;;;;27.57;55.42;101303.41;5019882;28;20180;-89
2023/07/18 04:43:49;;;;;;;4.13;3.83;;;;;;;27.74;55.57;101327.41;5031294;28;20044;-89
2023/07/18 04:46:15;;;;;;;4.53;4.00;;;;;;;27.80;55.24;101340.78;5031026;28;20034;-89
2023/07/18 04:48:41;;;;;;;4.93;4.22;;;;;;;27.74;55.50;101326.53;5032572;28;20025;-90
2023/07/18 04:51:06;;;;;;;4.32;3.92;;;;;;;27.72;55.39;101323.84;5034361;28;20056;-90
2023/07/18 04:53:32;;;;;;;4.78;3.75;;;;;;;27.59;55.55;101290.84;5016359;28;20057;-89
2023/07/18 04:55:58;;;;;;;;;;;;;;;27.90;55.34;101338.03;5017297;28;20061;-89
2023/07/18 04:58:25;;;;;;;4.75;3.67;;;;;;;27.58;55.63;101296.22;5014664;28;20031;-89
2023/07/18 05:00:54;;;;;;;4.50;4.05;;;;;;;27.44;55.45;101279.38;5024069;28;20116;-90
2023/07/18 05:03:30;;;;;;;5.10;4.25;;;;;;;27.58;56.51;101348.13;5016092;28;20029;-93
2023/07/18 05:06:26;;;;;;;8.02;4.60;;;;;;;27.63;57.28;101352.56;5032916;28;20040;-95
2023/07/18 05:09:03;;;;;;;10.23;5.30;;;;;;;27.40;58.34;101358.97;5024660;28;20029;-95
2023/07/18 05:11:29;;;;;;;6.65;5.00;;;;;;;27.42;58.36;101354.47;5006632;28;20033;-93
2023/07/18 05:13:56;;;;;;;;;;;;;;;27.40;58.70;101365.22;5013427;28;20041;-93
2023/07/18 05:16:21;;;;;;;;;;;;;;;27.47;58.51;101365.19;5029619;28;19960;-88
2023/07/18 05:18:47;;;;;;;5.78;4.90;;;;;;;27.59;58.00;101354.38;5025324;28;20010;-87
2023/07/18 05:21:13;;;;;;;6.93;4.90;;;;;;;27.68;57.14;101364.16;5014992;28;20065;-88
2023/07/18 05:23:39;;;;;;;6.07;4.55;;;;;;;27.69;57.37;101364.16;5030429;28;20029;-87
2023/07/18 05:26:08;;;;;;;;;;;;;;;27.74;57.03;101367.66;5029381;28;20034;-87
2023/07/18 05:28:33;;;;;;;6.85;4.40;;;;;;;27.62;57.06;101354.34;5011583;28;20020;-87
2023/07/18 05:31:05;;;;;;;;;;;;;;;27.72;56.92;101373.97;5024540;28;20109;-88
2023/07/18 05:33:30;;;;;;;6.22;4.63;;;;;;;27.65;56.82;101365.06;5023495;28;19913;-87
2023/07/18 05:35:56;;;;;;;;;;;;;;;27.69;56.91;101366.81;5032938;28;20037;-87
2023/07/18 05:38:22;;;;;;;4.45;3.90;;;;;;;27.68;56.75;101361.47;5032125;28;20313;-87
2023/07/18 05:40:48;;;;;;;4.60;4.15;;;;;;;27.42;56.38;101316.94;5031279;28;20053;-86
2023/07/18 05:43:13;;;;;;;4.65;4.20;;;;;;;27.68;56.55;101370.41;5031826;28;20391;-83
2023/07/18 05:45:39;;;;;;;4.43;3.95;;;;;;;27.57;55.98;101349.00;5014542;28;20056;-88
2023/07/18 05:48:05;;;;;;;6.55;4.30;;;;;;;27.53;56.41;101339.19;5012782;28;20056;-88
2023/07/18 05:50:30;;;;;;;;;;;;;;;27.74;56.22;101366.78;5031790;28;20101;-87
2023/07/18 05:52:56;;;;;;;4.40;4.00;;;;;;;27.63;56.57;101341.84;5018971;28;19913;-86
2023/07/18 05:55:21;;;;;;;4.28;3.85;;;;;;;27.69;56.29;101352.53;5025033;28;20441;-87
2023/07/18 05:57:47;;;;;;;4.47;4.07;;;;;;;27.51;56.17;101315.97;5022400;28;20087;-88
2023/07/18 06:00:13;;;;;;;5.93;4.45;;;;;;;27.68;56.32;101350.72;5031275;28;20178;-88
2023/07/18 06:02:39;;;;;;;4.35;3.95;;;;;;;27.68;55.96;101350.72;5030839;28;20045;-86
2023/07/18 06:05:07;;;;;;;5.10;4.03;;;;;;;27.67;55.90;101340.91;5030391;28;20037;-88
2023/07/18 06:07:33;;;;;;;5.00;4.13;;;;;;;27.66;56.29;101339.13;5033658;28;20025;-87
2023/07/18 06:10:00;;;;;;;4.65;3.70;;;;;;;27.69;56.24;101344.47;5009432;28;20041;-88
2023/07/18 06:12:27;;;;;;;4.47;4.03;;;;;;;27.37;55.76;101294.63;5004964;28;20109;-88
2023/07/18 06:14:55;;;;;;;4.40;4.00;;;;;;;27.75;56.04;101357.81;5026188;28;20026;-88
2023/07/18 06:17:20;;;;;;;4.82;4.30;;;;;;;27.63;56.24;101333.78;5030219;28;20052;-87
2023/07/18 06:19:46;;;;;;;5.90;4.00;;;;;;;27.65;55.56;101350.75;5027069;28;20491;-89
2023/07/18 06:22:13;;;;;;;4.13;3.72;;;;;;;27.58;55.87;101332.03;5026189;28;20039;-91
2023/07/18 06:24:39;;;;;;;4.50;4.10;;;;;;;27.62;55.70;101330.19;5011932;28;20118;-87
2023/07/18 06:27:05;;;;;;;3.95;3.55;;;;;;;27.75;55.88;101355.13;5021326;28;20449;-88
2023/07/18 06:29:32;;;;;;;5.00;4.50;;;;;;;27.74;55.47;101356.06;5028293;28;20497;-88
2023/07/18 06:31:58;;;;;;;4.45;4.05;;;;;;;27.67;55.27;101352.53;5013572;28;20040;-89
2023/07/18 06:34:24;;;;;;;4.60;4.15;;;;;;;27.61;54.96;101340.03;5050790;28;20104;-89
2023/07/18 06:36:51;;;;;;;5.43;3.75;;;;;;;27.74;55.52;101358.72;5049799;28;20028;-89
2023/07/18 06:39:16;;;;;;;4.85;3.88;;;;;;;27.56;55.05;101327.56;5050276;28;20021;-89
2023/07/18 06:41:56;;;;;;;4.20;3.67;;;;;;;27.57;55.06;101326.66;5032971;28;20029;-90
2023/07/18 06:44:21;;;;;;;4.72;4.15;;;;;;;27.67;55.50;101344.47;5051243;28;20039;-90
2023/07/18 06:46:53;;;;;;;5.10;4.50;;;;;;;27.64;54.89;101330.19;5030592;28;20025;-88
2023/07/18 06:49:20;;;;;;;4.00;3.60;;;;;;;27.70;55.24;101332.81;5004972;28;20026;-89
2023/07/18 06:52:16;;;;;;;4.60;4.20;;;;;;;27.77;55.46;101354.25;5015603;28;20033;-89
2023/07/18 06:54:42;;;;;;;4.43;4.03;;;;;;;27.78;55.09;101349.75;5024568;28;20048;-90
2023/07/18 06:57:15;;;;;;;4.70;4.18;;;;;;;27.72;56.04;101328.34;5050552;28;20025;-89
2023/07/18 06:59:53;;;;;;;4.78;4.38;;;;;;;27.73;55.38;101340.84;5009900;28;20053;-89
2023/07/18 07:02:19;;;;;;;4.55;4.10;;;;;;;27.47;55.24;101300.78;5025735;28;20083;-89
2023/07/18 07:04:44;;;;;;;5.85;4.43;;;;;;;27.39;54.96;101282.97;5050358;28;20021;-90
2023/07/18 07:07:10;;;;;;;4.10;3.70;;;;;;;27.57;55.17;101307.88;5047068;28;20108;-89
2023/07/18 07:09:37;;;;;;;4.45;4.05;;;;;;;27.82;55.18;101360.44;5030027;28;20071;-89
2023/07/18 07:12:03;;;;;;;4.68;4.28;;;;;;;27.66;54.97;101328.38;5032760;28;20025;-90
2023/07/18 07:14:34;;;;;;;4.57;4.18;;;;;;;27.78;55.06;101341.72;5009831;28;20036;-90
2023/07/18 07:17:01;;;;;;;4.40;4.00;;;;;;;27.71;54.93;101321.19;5050821;28;20132;-91
2023/07/18 07:19:27;;;;;;;4.38;3.97;;;;;;;27.73;54.94;101327.41;5026241;28;20036;-91
2023/07/18 07:21:53;;;;;;;5.60;4.20;;;;;;;27.89;55.30;101347.03;5016149;28;20029;-90
2023/07/18 07:24:23;;;;;;;4.45;4.05;;;;;;;27.84;55.24;101355.09;5017476;28;20036;-85
2023/07/18 07:26:48;;;;;;;5.00;4.50;;;;;;;27.47;55.48;101293.63;5013658;28;20090;-89
2023/07/18 07:29:16;;;;;;;4.60;4.10;;;;;;;27.86;54.92;101352.44;5013183;28;20038;-90
2023/07/18 07:32:13;;;;;;;5.55;4.30;;;;;;;27.87;55.36;101347.03;5018280;28;20025;-92
2023/07/18 07:34:39;;;;;;;4.20;3.80;;;;;;;27.79;54.99;101332.72;5025591;28;20035;-88
2023/07/18 07:37:05;;;;;;;4.30;3.90;;;;;;;27.91;55.86;101348.78;5033717;28;20033;-88
2023/07/18 07:39:30;;;;;;;4.53;4.13;;;;;;;27.58;55.69;101296.22;5032735;28;20060;-90
2023/07/18 07:41:56;;;;;;;3.92;3.63;;;;;;;27.82;55.63;101347.03;5009836;28;20060;-91
2023/07/18 07:44:32;;;;;;;4.88;4.38;;;;;;;27.89;55.03;101347.03;5031208;28;20037;-88
2023/07/18 07:46:58;;;;;;;4.50;4.10;;;;;;;27.91;54.91;101350.59;5028618;28;20074;-89
2023/07/18 07:49:23;;;;;;;3.85;3.55;;;;;;;27.62;55.63;101295.31;5054480;28;20025;-87
2023/07/18 07:51:49;;;;;;;4.82;4.20;;;;;;;27.47;55.57;101273.97;5030578;28;20056;-88
2023/07/18 07:54:15;;;;;;;4.15;3.80;;;;;;;27.60;55.29;101292.66;5054255;28;20029;-87
2023/07/18 07:56:40;;;;;;;4.68;4.28;;;;;;;27.91;55.81;101351.47;5021779;28;20041;-86
2023/07/18 07:59:06;;;;;;;4.35;3.95;;;;;;;27.67;55.23;101297.97;5034759;28;20043;-89
2023/07/18 08:01:32;;;;;;;4.35;3.95;;;;;;;27.69;55.13;101294.38;5053020;28;20017;-89
2023/07/18 08:03:57;;;;;;;4.60;4.20;;;;;;;27.81;55.06;101314.81;5019222;28;20120;-89
2023/07/18 08:06:23;;;;;;;4.30;3.90;;;;;;;27.82;55.33;101316.63;5016696;28;20052;-88
2023/07/18 08:08:49;;;;;;;5.20;4.20;;;;;;;27.79;55.14;101316.63;5017914;28;20464;-88
2023/07/18 08:11:14;;;;;;;;;;;;;;;27.94;55.62;101331.75;5012344;28;20029;-89
2023/07/18 08:13:41;;;;;;;4.68;3.72;;;;;;;27.92;55.32;101336.25;5049484;28;20369;-91
2023/07/18 08:16:07;;;;;;;4.55;4.15;;;;;;;27.66;55.01;101280.97;5026600;28;20624;-90
2023/07/18 08:18:34;;;;;;;4.32;3.90;;;;;;;27.67;55.36;101298.84;5045660;28;20625;-91
2023/07/18 08:21:00;;;;;;;4.70;4.05;;;;;;;27.90;55.38;101335.34;5043016;28;20037;-91
2023/07/18 08:23:25;;;;;;;4.50;4.10;;;;;;;27.57;55.05;101276.56;5014734;28;20036;-88
2023/07/18 08:25:53;;;;;;;4.57;3.80;;;;;;;27.70;55.34;101297.94;5044567;28;20025;-92
2023/07/18 08:28:20;;;;;;;4.13;3.72;;;;;;;27.85;54.96;101330.00;5048291;28;20048;-91
2023/07/18 08:30:47;;;;;;;4.15;3.75;;;;;;;27.89;55.09;101334.47;5050292;28;20121;-90
2023/07/18 08:33:19;;;;;;;4.53;4.13;;;;;;;27.94;55.03;101348.78;5033468;28;20024;-89
2023/07/18 08:35:48;;;;;;;4.32;3.90;;;;;;;27.84;55.31;101314.81;5033957;28;20033;-89
2023/07/18 08:38:15;;;;;;;4.40;4.00;;;;;;;28.00;55.15;101355.84;5033280;28;20041;-88
2023/07/18 08:40:43;;;;;;;4.20;3.80;;;;;;;27.82;55.11;101314.81;5016167;28;20036;-88
2023/07/18 08:43:14;;;;;;;4.45;4.05;;;;;;;27.93;56.15;101344.28;5051961;28;20059;-89
2023/07/18 08:45:40;;;;;;;4.57;4.18;;;;;;;27.79;55.08;101328.28;5029006;28;20120;-88
2023/07/18 08:48:06;;;;;;;3.90;3.60;;;;;;;27.95;56.25;101353.22;5043623;28;20064;-88
2023/07/18 08:50:33;;;;;;;5.38;4.07;;;;;;;27.91;55.53;101343.41;5032265;28;20124;-88
2023/07/18 08:52:59;;;;;;;4.10;3.70;;;;;;;27.97;55.94;101351.41;5012910;28;20033;-88
2023/07/18 08:55:29;;;;;;;4.50;4.10;;;;;;;27.92;55.16;101344.28;5023307;28;20075;-89
2023/07/18 08:57:55;;;;;;;4.40;4.00;;;;;;;27.93;56.02;101333.56;5026438;28;20039;-90
2023/07/18 09:00:21;;;;;;;4.53;4.13;;;;;;;27.89;54.99;101326.44;5014429;28;20415;-90
2023/07/18 09:02:50;;;;;;;4.63;4.15;;;;;;;28.06;56.13;101352.25;5031524;28;20033;-91
2023/07/18 09:05:29;;;;;;;4.30;3.90;;;;;;;27.96;55.17;101346.03;5047602;28;20051;-90
2023/07/18 09:08:03;;;;;;;4.05;3.67;;;;;;;28.03;55.16;101353.16;5051167;28;20022;-90
2023/07/18 09:10:30;;;;;;;4.38;3.97;;;;;;;27.95;55.37;101323.69;5034142;28;20051;-91
2023/07/18 09:13:03;;;;;;;4.28;3.85;;;;;;;28.02;55.40;101340.63;5015208;28;20437;-91
2023/07/18 09:15:37;;;;;;;4.40;4.00;;;;;;;28.14;55.68;101358.44;5016656;28;20413;-91
2023/07/18 09:18:05;;;;;;;4.15;3.75;;;;;;;28.05;55.19;101358.53;5014705;28;20036;-90
2023/07/18 09:20:33;;;;;;;4.40;4.00;;;;;;;27.88;55.39;101323.78;5033091;28;20090;-92
2023/07/18 09:23:02;;;;;;;5.00;3.80;;;;;;;27.84;55.53;101311.25;5014238;28;20092;-90
2023/07/18 09:25:29;;;;;;;4.43;4.00;;;;;;;28.06;56.26;101354.94;5013051;28;20057;-91
2023/07/18 09:27:56;;;;;;;4.40;4.00;;;;;;;28.06;55.63;101358.50;5029823;28;20041;-91
2023/07/18 09:30:34;;;;;;;4.30;3.90;;;;;;;27.92;56.06;101321.03;5006765;28;20030;-91
2023/07/18 09:33:31;;;;;;;4.28;3.85;;;;;;;28.12;56.10;101352.19;5018482;28;20089;-89
2023/07/18 09:35:59;;;;;;;4.28;3.88;;;;;;;28.07;55.80;101356.69;5015460;28;20656;-88
2023/07/18 09:38:25;;;;;;;4.45;4.00;;;;;;;28.04;55.68;101348.69;5007110;28;20124;-90
2023/07/18 09:41:26;;;;;;;4.35;3.95;;;;;;;28.08;56.84;101355.81;5013409;28;20061;-90
2023/07/18 09:47:15;;;;;;;3.90;3.60;;;;;;;28.11;56.51;101356.66;5024043;28;20033;-89
2023/07/18 10:00:54;;;;;;;4.13;3.72;;;;;;;28.11;56.01;101343.25;4969383;28;20056;-90
2023/07/18 10:03:23;;;;;;;4.63;4.22;;;;;;;27.93;55.99;101304.03;5006740;28;20034;-90
2023/07/18 10:05:49;;;;;;;4.40;4.00;;;;;;;27.94;56.49;101307.59;4998155;28;20053;-91
2023/07/18 10:08:16;;;;;;;4.45;4.05;;;;;;;28.12;57.05;101326.22;4998323;28;20042;-91
2023/07/18 10:10:41;;;;;;;4.50;4.10;;;;;;;28.06;57.18;101317.34;4976409;28;20037;-90
2023/07/18 10:13:07;;;;;;;4.63;4.13;;;;;;;28.07;56.34;101317.31;5009697;28;20026;-89
2023/07/18 10:16:13;;;;;;;4.32;3.92;;;;;;;27.69;56.31;101258.59;5023039;28;20143;-89
2023/07/18 10:18:51;;;;;;;4.25;3.85;;;;;;;28.14;57.17;101326.22;4990877;28;20076;-90
2023/07/18 10:21:32;;;;;;;3.90;3.60;;;;;;;28.09;56.09;101314.59;5005206;28;20033;-89
2023/07/18 10:24:21;;;;;;;4.30;3.90;;;;;;;28.19;56.81;101318.97;4997691;28;20064;-90
2023/07/18 10:27:00;;;;;;;4.40;4.00;;;;;;;28.14;56.68;101313.66;4992711;28;20073;-89
2023/07/18 10:29:33;;;;;;;4.40;4.00;;;;;;;28.10;56.20;101308.34;4971547;28;20085;-89
2023/07/18 10:32:00;;;;;;;4.25;3.85;;;;;;;28.17;56.47;101313.66;4981555;28;20041;-88
2023/07/18 10:34:26;;;;;;;3.85;3.55;;;;;;;28.14;57.22;101316.34;5021629;28;20107;-89
2023/07/18 10:37:06;;;;;;;4.00;3.70;;;;;;;28.02;56.65;101286.94;5030853;28;20033;-90
2023/07/18 10:39:43;;;;;;;4.30;3.83;;;;;;;28.13;56.41;101309.22;5028191;28;20052;-89
2023/07/18 10:42:21;;;;;;;4.25;3.92;;;;;;;28.18;56.43;101307.34;5026662;28;20091;-91
2023/07/18 10:45:00;;;;;;;3.92;3.63;;;;;;;27.97;56.83;101272.69;5006549;28;20022;-89
2023/07/18 10:47:31;;;;;;;4.70;4.30;;;;;;;28.19;56.46;101308.25;4995512;28;20036;-90
2023/07/18 10:49:57;;;;;;;4.30;3.90;;;;;;;28.11;56.39;101292.22;5008983;28;20030;-88
2023/07/18 10:52:22;;;;;;;4.25;3.95;;;;;;;28.19;56.96;101294.81;5013857;28;20025;-90
2023/07/18 10:54:51;;;;;;;4.45;4.05;;;;;;;28.22;56.96;101306.41;5031206;28;20032;-89
2023/07/18 10:57:26;;;;;;;4.57;4.18;;;;;;;28.06;57.24;101275.25;5026353;28;20139;-90
2023/07/18 10:59:53;;;;;;;4.20;3.80;;;;;;;28.19;56.23;101297.50;5031837;28;20037;-89
2023/07/18 11:02:20;;;;;;;5.10;3.85;;;;;;;28.22;57.28;101294.78;5017326;28;20087;-91
2023/07/18 11:04:46;;;;;;;4.75;3.90;;;;;;;28.17;56.39;101288.56;5020460;28;20034;-90
2023/07/18 11:07:14;;;;;;;4.80;4.38;;;;;;;28.25;56.29;101294.75;5015554;28;20111;-90
2023/07/18 11:09:42;;;;;;;4.25;3.95;;;;;;;28.23;56.85;101297.44;5017273;28;20029;-91
2023/07/18 11:12:18;;;;;;;4.20;3.90;;;;;;;28.03;56.44;101248.44;5014661;28;20022;-90
2023/07/18 11:14:44;;;;;;;4.60;4.20;;;;;;;28.09;56.74;101261.81;5023690;28;20445;-90
2023/07/18 11:17:16;;;;;;;4.35;3.95;;;;;;;28.20;56.79;101276.00;5033346;28;20287;-89
2023/07/18 11:19:43;;;;;;;4.82;4.43;;;;;;;28.08;56.84;101256.44;5029596;28;20037;-91
2023/07/18 11:22:10;;;;;;;4.10;3.80;;;;;;;28.19;56.83;101254.53;5014142;28;20057;-90
2023/07/18 11:24:36;;;;;;;4.43;4.10;;;;;;;28.16;56.59;101244.72;5015869;28;20034;-90
2023/07/18 11:27:17;;;;;;;4.80;4.40;;;;;;;28.35;56.67;101290.19;5014596;28;20507;-93
2023/07/18 11:30:09;;;;;;;4.82;4.43;;;;;;;28.38;56.60;101291.00;5031143;28;20080;-89
2023/07/18 11:32:39;;;;;;;4.32;3.92;;;;;;;28.33;56.95;101278.56;5049330;28;20047;-92
2023/07/18 11:35:10;;;;;;;4.50;4.10;;;;;;;28.34;56.42;101272.25;5055098;28;20024;-91
2023/07/18 11:37:41;;;;;;;4.70;4.20;;;;;;;28.28;56.55;101264.28;5037699;28;20166;-93
2023/07/18 11:40:10;;;;;;;5.22;4.30;;;;;;;28.31;56.82;101265.13;5019230;28;20033;-94
2023/07/18 11:43:05;;;;;;;4.75;4.35;;;;;;;28.39;56.69;101268.63;5023475;28;20031;-93
2023/07/18 11:45:32;;;;;;;4.43;4.03;;;;;;;28.35;56.78;101263.31;5040648;28;20021;-94
2023/07/18 11:47:59;;;;;;;4.40;4.00;;;;;;;28.23;57.58;101251.78;5023247;28;20484;-93